sensor_id;sensor_type;location;lat;lon;timestamp;pressure;altitude;pressure_sealevel;temperature;humidity
40708;BME280;26392;42.696;23.350;2023-04-15T00:00:56;94519.06;;;8.00;100.00
40708;BME280;26392;42.696;23.350;2023-04-15T00:03:22;94540.56;;;8.07;100.00
40708;BME280;26392;42.696;23.350;2023-04-15T00:05:48;94555.66;;;7.98;100.00
40708;BME280;26392;42.696;23.350;2023-04-15T00:08:14;94566.50;;;7.98;100.00
40708;BME280;26392;42.696;23.350;2023-04-15T00:10:39;94560.84;;;7.99;100.00
40708;BME280;26392;42.696;23.350;2023-04-15T00:13:07;94560.06;;;8.04;100.00
40708;BME280;26392;42.696;23.350;2023-04-15T00:15:32;94552.75;;;8.04;100.00
40708;BME280;26392;42.696;23.350;2023-04-15T00:17:57;94551.13;;;8.08;100.00
40708;BME280;26392;42.696;23.350;2023-04-15T00:20:23;94552.53;;;8.11;100.00
40708;BME280;26392;42.696;23.350;2023-04-15T00:22:48;94552.00;;;8.14;100.00
40708;BME280;26392;42.696;23.350;2023-04-15T00:25:14;94549.69;;;7.96;100.00
40708;BME280;26392;42.696;23.350;2023-04-15T00:27:39;94554.84;;;7.97;100.00
40708;BME280;26392;42.696;23.350;2023-04-15T00:30:05;94547.28;;;7.99;100.00
40708;BME280;26392;42.696;23.350;2023-04-15T00:32:31;94544.34;;;8.06;100.00
40708;BME280;26392;42.696;23.350;2023-04-15T00:34:56;94538.97;;;8.11;100.00
40708;BME280;26392;42.696;23.350;2023-04-15T00:37:22;94540.09;;;8.20;100.00
40708;BME280;26392;42.696;23.350;2023-04-15T00:39:48;94543.69;;;8.26;100.00
40708;BME280;26392;42.696;23.350;2023-04-15T00:42:13;94548.94;;;8.38;100.00
40708;BME280;26392;42.696;23.350;2023-04-15T00:44:39;94559.38;;;8.51;100.00
40708;BME280;26392;42.696;23.350;2023-04-15T00:47:05;94562.94;;;8.57;100.00
40708;BME280;26392;42.696;23.350;2023-04-15T00:49:31;94557.00;;;8.60;100.00
40708;BME280;26392;42.696;23.350;2023-04-15T00:51:57;94558.88;;;8.59;100.00
40708;BME280;26392;42.696;23.350;2023-04-15T00:54:22;94558.66;;;8.61;100.00
40708;BME280;26392;42.696;23.350;2023-04-15T00:56:48;94546.72;;;8.67;100.00
40708;BME280;26392;42.696;23.350;2023-04-15T00:59:13;94545.09;;;8.66;100.00
40708;BME280;26392;42.696;23.350;2023-04-15T01:01:39;94543.97;;;8.62;100.00
40708;BME280;26392;42.696;23.350;2023-04-15T01:04:05;94550.16;;;8.52;100.00
40708;BME280;26392;42.696;23.350;2023-04-15T01:06:31;94556.38;;;8.47;100.00
40708;BME280;26392;42.696;23.350;2023-04-15T01:08:57;94553.06;;;8.40;100.00
40708;BME280;26392;42.696;23.350;2023-04-15T01:11:23;94567.94;;;8.38;100.00
40708;BME280;26392;42.696;23.350;2023-04-15T01:13:54;94565.47;;;8.36;100.00
40708;BME280;26392;42.696;23.350;2023-04-15T01:16:21;94570.06;;;8.30;100.00
40708;BME280;26392;42.696;23.350;2023-04-15T01:18:46;94570.53;;;8.22;100.00
40708;BME280;26392;42.696;23.350;2023-04-15T01:21:11;94561.06;;;8.25;100.00
40708;BME280;26392;42.696;23.350;2023-04-15T01:23:38;94556.47;;;8.30;100.00
40708;BME280;26392;42.696;23.350;2023-04-15T01:26:04;94549.34;;;8.19;100.00
40708;BME280;26392;42.696;23.350;2023-04-15T01:28:32;94548.25;;;8.20;100.00
40708;BME280;26392;42.696;23.350;2023-04-15T01:31:08;94545.53;;;8.15;100.00
40708;BME280;26392;42.696;23.350;2023-04-15T01:33:34;94543.81;;;8.09;100.00
40708;BME280;26392;42.696;23.350;2023-04-15T01:35:59;94545.47;;;8.10;100.00
40708;BME280;26392;42.696;23.350;2023-04-15T01:38:26;94539.19;;;8.04;100.00
40708;BME280;26392;42.696;23.350;2023-04-15T01:40:51;94551.94;;;8.04;100.00
40708;BME280;26392;42.696;23.350;2023-04-15T01:43:18;94553.50;;;8.00;100.00
40708;BME280;26392;42.696;23.350;2023-04-15T01:45:43;94548.84;;;7.95;100.00
40708;BME280;26392;42.696;23.350;2023-04-15T01:48:09;94548.03;;;7.95;100.00
40708;BME280;26392;42.696;23.350;2023-04-15T01:50:34;94560.72;;;7.89;100.00
40708;BME280;26392;42.696;23.350;2023-04-15T01:53:01;94567.53;;;7.92;100.00
40708;BME280;26392;42.696;23.350;2023-04-15T01:55:26;94567.75;;;7.85;100.00
40708;BME280;26392;42.696;23.350;2023-04-15T01:57:51;94567.63;;;7.75;100.00
40708;BME280;26392;42.696;23.350;2023-04-15T02:00:17;94576.28;;;7.72;100.00
40708;BME280;26392;42.696;23.350;2023-04-15T02:02:42;94566.16;;;7.62;100.00
40708;BME280;26392;42.696;23.350;2023-04-15T02:05:08;94574.69;;;7.49;100.00
40708;BME280;26392;42.696;23.350;2023-04-15T02:07:35;94581.13;;;7.43;100.00
40708;BME280;26392;42.696;23.350;2023-04-15T02:10:01;94571.53;;;7.35;100.00
40708;BME280;26392;42.696;23.350;2023-04-15T02:12:27;94569.47;;;6.98;100.00
40708;BME280;26392;42.696;23.350;2023-04-15T02:14:52;94577.44;;;6.88;100.00
40708;BME280;26392;42.696;23.350;2023-04-15T02:17:17;94574.44;;;6.67;100.00
40708;BME280;26392;42.696;23.350;2023-04-15T02:19:43;94573.66;;;6.50;100.00
40708;BME280;26392;42.696;23.350;2023-04-15T02:22:08;94547.59;;;6.27;100.00
40708;BME280;26392;42.696;23.350;2023-04-15T02:24:35;94569.22;;;6.27;100.00
40708;BME280;26392;42.696;23.350;2023-04-15T02:27:00;94567.09;;;6.12;100.00
40708;BME280;26392;42.696;23.350;2023-04-15T02:29:26;94563.94;;;5.87;100.00
40708;BME280;26392;42.696;23.350;2023-04-15T02:31:51;94563.94;;;5.87;100.00
40708;BME280;26392;42.696;23.350;2023-04-15T02:34:17;94562.13;;;5.92;100.00
40708;BME280;26392;42.696;23.350;2023-04-15T02:36:42;94565.56;;;5.99;100.00
40708;BME280;26392;42.696;23.350;2023-04-15T02:39:08;94567.09;;;5.95;100.00
40708;BME280;26392;42.696;23.350;2023-04-15T02:41:34;94571.63;;;5.78;100.00
40708;BME280;26392;42.696;23.350;2023-04-15T02:43:59;94580.72;;;5.72;100.00
40708;BME280;26392;42.696;23.350;2023-04-15T02:46:25;94557.81;;;5.63;100.00
40708;BME280;26392;42.696;23.350;2023-04-15T02:48:51;94563.16;;;5.57;100.00
40708;BME280;26392;42.696;23.350;2023-04-15T02:51:19;94576.81;;;5.51;100.00
40708;BME280;26392;42.696;23.350;2023-04-15T02:53:49;94584.91;;;5.51;100.00
40708;BME280;26392;42.696;23.350;2023-04-15T02:56:15;94576.56;;;5.52;100.00
40708;BME280;26392;42.696;23.350;2023-04-15T02:58:42;94589.88;;;5.42;100.00
40708;BME280;26392;42.696;23.350;2023-04-15T03:01:07;94588.25;;;5.41;100.00
40708;BME280;26392;42.696;23.350;2023-04-15T03:03:33;94584.41;;;5.25;100.00
40708;BME280;26392;42.696;23.350;2023-04-15T03:05:58;94593.00;;;5.22;100.00
40708;BME280;26392;42.696;23.350;2023-04-15T03:08:24;94587.13;;;5.25;100.00
40708;BME280;26392;42.696;23.350;2023-04-15T03:10:49;94590.53;;;5.21;100.00
40708;BME280;26392;42.696;23.350;2023-04-15T03:13:17;94586.81;;;5.10;100.00
40708;BME280;26392;42.696;23.350;2023-04-15T03:15:42;94590.09;;;5.00;100.00
40708;BME280;26392;42.696;23.350;2023-04-15T03:18:07;94598.31;;;5.05;100.00
40708;BME280;26392;42.696;23.350;2023-04-15T03:20:33;94600.91;;;5.00;100.00
40708;BME280;26392;42.696;23.350;2023-04-15T03:23:00;94596.81;;;4.98;100.00
40708;BME280;26392;42.696;23.350;2023-04-15T03:25:25;94604.44;;;4.89;100.00
40708;BME280;26392;42.696;23.350;2023-04-15T03:27:51;94595.06;;;4.91;100.00
40708;BME280;26392;42.696;23.350;2023-04-15T03:30:16;94603.16;;;4.91;100.00
40708;BME280;26392;42.696;23.350;2023-04-15T03:32:42;94610.44;;;4.91;100.00
40708;BME280;26392;42.696;23.350;2023-04-15T03:35:07;94613.84;;;4.86;100.00
40708;BME280;26392;42.696;23.350;2023-04-15T03:37:33;94608.78;;;4.90;100.00
40708;BME280;26392;42.696;23.350;2023-04-15T03:39:59;94626.63;;;4.91;100.00
40708;BME280;26392;42.696;23.350;2023-04-15T03:42:24;94632.16;;;4.96;100.00
40708;BME280;26392;42.696;23.350;2023-04-15T03:44:50;94636.59;;;5.02;100.00
40708;BME280;26392;42.696;23.350;2023-04-15T03:47:15;94629.09;;;5.04;100.00
40708;BME280;26392;42.696;23.350;2023-04-15T03:49:40;94638.34;;;5.08;100.00
40708;BME280;26392;42.696;23.350;2023-04-15T03:52:06;94638.78;;;5.17;100.00
40708;BME280;26392;42.696;23.350;2023-04-15T03:54:31;94630.69;;;5.17;100.00
40708;BME280;26392;42.696;23.350;2023-04-15T03:56:57;94640.31;;;5.25;100.00
40708;BME280;26392;42.696;23.350;2023-04-15T03:59:22;94642.75;;;5.38;100.00
40708;BME280;26392;42.696;23.350;2023-04-15T04:01:48;94644.00;;;5.47;100.00
40708;BME280;26392;42.696;23.350;2023-04-15T04:04:13;94639.19;;;5.49;100.00
40708;BME280;26392;42.696;23.350;2023-04-15T04:06:39;94639.28;;;5.54;100.00
40708;BME280;26392;42.696;23.350;2023-04-15T04:09:04;94642.34;;;5.58;100.00
40708;BME280;26392;42.696;23.350;2023-04-15T04:11:30;94638.41;;;5.66;100.00
40708;BME280;26392;42.696;23.350;2023-04-15T04:13:55;94642.88;;;5.72;100.00
40708;BME280;26392;42.696;23.350;2023-04-15T04:16:21;94635.44;;;5.79;100.00
40708;BME280;26392;42.696;23.350;2023-04-15T04:18:46;94645.38;;;5.90;100.00
40708;BME280;26392;42.696;23.350;2023-04-15T04:21:12;94650.47;;;6.32;100.00
40708;BME280;26392;42.696;23.350;2023-04-15T04:23:37;94652.81;;;7.13;100.00
40708;BME280;26392;42.696;23.350;2023-04-15T04:26:03;94652.00;;;7.78;100.00
40708;BME280;26392;42.696;23.350;2023-04-15T04:28:28;94647.75;;;8.10;100.00
40708;BME280;26392;42.696;23.350;2023-04-15T04:30:54;94646.72;;;8.16;100.00
40708;BME280;26392;42.696;23.350;2023-04-15T04:33:20;94652.31;;;8.04;100.00
40708;BME280;26392;42.696;23.350;2023-04-15T04:35:45;94650.88;;;7.96;100.00
40708;BME280;26392;42.696;23.350;2023-04-15T04:38:11;94652.69;;;7.91;100.00
40708;BME280;26392;42.696;23.350;2023-04-15T04:40:36;94648.28;;;7.84;100.00
40708;BME280;26392;42.696;23.350;2023-04-15T04:43:02;94653.03;;;7.72;100.00
40708;BME280;26392;42.696;23.350;2023-04-15T04:45:27;94654.63;;;7.68;100.00
40708;BME280;26392;42.696;23.350;2023-04-15T04:47:52;94661.09;;;7.67;100.00
40708;BME280;26392;42.696;23.350;2023-04-15T04:50:18;94666.34;;;7.52;100.00
40708;BME280;26392;42.696;23.350;2023-04-15T04:52:43;94672.13;;;7.38;100.00
40708;BME280;26392;42.696;23.350;2023-04-15T04:55:09;94678.66;;;7.21;100.00
40708;BME280;26392;42.696;23.350;2023-04-15T04:57:34;94677.69;;;7.10;100.00
40708;BME280;26392;42.696;23.350;2023-04-15T05:00:01;94673.84;;;7.06;100.00
40708;BME280;26392;42.696;23.350;2023-04-15T05:02:28;94680.63;;;7.08;100.00
40708;BME280;26392;42.696;23.350;2023-04-15T05:04:54;94683.09;;;7.10;100.00
40708;BME280;26392;42.696;23.350;2023-04-15T05:07:19;94685.66;;;7.00;100.00
40708;BME280;26392;42.696;23.350;2023-04-15T05:09:45;94688.94;;;7.02;100.00
40708;BME280;26392;42.696;23.350;2023-04-15T05:12:11;94704.34;;;7.18;100.00
40708;BME280;26392;42.696;23.350;2023-04-15T05:14:40;94698.63;;;7.36;100.00
40708;BME280;26392;42.696;23.350;2023-04-15T05:17:06;94707.31;;;7.55;100.00
40708;BME280;26392;42.696;23.350;2023-04-15T05:19:31;94706.28;;;7.61;100.00
40708;BME280;26392;42.696;23.350;2023-04-15T05:21:57;94700.94;;;7.67;100.00
40708;BME280;26392;42.696;23.350;2023-04-15T05:24:22;94697.63;;;7.81;100.00
40708;BME280;26392;42.696;23.350;2023-04-15T05:26:48;94706.16;;;7.95;100.00
40708;BME280;26392;42.696;23.350;2023-04-15T05:29:13;94703.84;;;8.04;100.00
40708;BME280;26392;42.696;23.350;2023-04-15T05:31:38;94712.34;;;8.13;100.00
40708;BME280;26392;42.696;23.350;2023-04-15T05:34:04;94704.94;;;8.30;100.00
40708;BME280;26392;42.696;23.350;2023-04-15T05:36:29;94698.00;;;8.39;100.00
40708;BME280;26392;42.696;23.350;2023-04-15T05:38:55;94701.00;;;8.43;100.00
40708;BME280;26392;42.696;23.350;2023-04-15T05:41:21;94697.66;;;8.36;100.00
40708;BME280;26392;42.696;23.350;2023-04-15T05:43:46;94703.19;;;8.41;100.00
40708;BME280;26392;42.696;23.350;2023-04-15T05:46:12;94706.84;;;8.57;100.00
40708;BME280;26392;42.696;23.350;2023-04-15T05:48:37;94699.03;;;8.65;100.00
40708;BME280;26392;42.696;23.350;2023-04-15T05:51:03;94701.00;;;8.70;100.00
40708;BME280;26392;42.696;23.350;2023-04-15T05:53:28;94710.53;;;8.72;100.00
40708;BME280;26392;42.696;23.350;2023-04-15T05:55:54;94710.06;;;8.81;100.00
40708;BME280;26392;42.696;23.350;2023-04-15T05:58:19;94716.34;;;8.86;100.00
40708;BME280;26392;42.696;23.350;2023-04-15T06:00:44;94718.56;;;8.89;100.00
40708;BME280;26392;42.696;23.350;2023-04-15T06:03:10;94722.19;;;9.00;100.00
40708;BME280;26392;42.696;23.350;2023-04-15T06:05:36;94724.47;;;9.13;100.00
40708;BME280;26392;42.696;23.350;2023-04-15T06:08:01;94724.56;;;9.29;99.38
40708;BME280;26392;42.696;23.350;2023-04-15T06:10:26;94726.53;;;9.38;97.66
40708;BME280;26392;42.696;23.350;2023-04-15T06:12:52;94731.16;;;9.43;97.96
40708;BME280;26392;42.696;23.350;2023-04-15T06:15:17;94728.28;;;9.60;97.42
40708;BME280;26392;42.696;23.350;2023-04-15T06:17:43;94723.16;;;9.63;96.98
40708;BME280;26392;42.696;23.350;2023-04-15T06:20:09;94723.47;;;9.72;95.36
40708;BME280;26392;42.696;23.350;2023-04-15T06:22:36;94733.59;;;9.87;94.75
40708;BME280;26392;42.696;23.350;2023-04-15T06:25:03;94738.00;;;9.98;91.41
40708;BME280;26392;42.696;23.350;2023-04-15T06:27:29;94743.22;;;10.10;90.59
40708;BME280;26392;42.696;23.350;2023-04-15T06:29:54;94739.75;;;10.20;88.97
40708;BME280;26392;42.696;23.350;2023-04-15T06:32:20;94743.06;;;10.32;88.63
40708;BME280;26392;42.696;23.350;2023-04-15T06:34:45;94752.78;;;10.18;87.14
40708;BME280;26392;42.696;23.350;2023-04-15T06:37:11;94754.72;;;10.17;86.91
40708;BME280;26392;42.696;23.350;2023-04-15T06:39:40;94746.50;;;10.12;87.57
40708;BME280;26392;42.696;23.350;2023-04-15T06:42:06;94758.31;;;10.28;86.21
40708;BME280;26392;42.696;23.350;2023-04-15T06:44:31;94747.72;;;10.37;85.33
40708;BME280;26392;42.696;23.350;2023-04-15T06:46:57;94752.13;;;10.48;84.72
40708;BME280;26392;42.696;23.350;2023-04-15T06:49:22;94757.34;;;10.65;82.04
40708;BME280;26392;42.696;23.350;2023-04-15T06:51:47;94763.06;;;10.73;81.23
40708;BME280;26392;42.696;23.350;2023-04-15T06:54:13;94762.81;;;10.80;80.73
40708;BME280;26392;42.696;23.350;2023-04-15T06:56:38;94757.63;;;10.68;80.37
40708;BME280;26392;42.696;23.350;2023-04-15T06:59:04;94769.31;;;10.69;81.61
40708;BME280;26392;42.696;23.350;2023-04-15T07:01:30;94758.13;;;10.55;81.13
40708;BME280;26392;42.696;23.350;2023-04-15T07:03:55;94743.72;;;10.75;80.85
40708;BME280;26392;42.696;23.350;2023-04-15T07:06:21;94750.81;;;10.71;78.99
40708;BME280;26392;42.696;23.350;2023-04-15T07:08:46;94760.66;;;10.87;79.27
40708;BME280;26392;42.696;23.350;2023-04-15T07:11:12;94759.03;;;11.07;78.01
40708;BME280;26392;42.696;23.350;2023-04-15T07:13:37;94764.22;;;11.13;76.21
40708;BME280;26392;42.696;23.350;2023-04-15T07:16:02;94765.00;;;10.88;77.43
40708;BME280;26392;42.696;23.350;2023-04-15T07:18:28;94758.50;;;11.10;77.28
40708;BME280;26392;42.696;23.350;2023-04-15T07:20:53;94746.75;;;11.30;75.32
40708;BME280;26392;42.696;23.350;2023-04-15T07:23:19;94751.66;;;11.33;74.43
40708;BME280;26392;42.696;23.350;2023-04-15T07:25:45;94761.75;;;11.53;73.81
40708;BME280;26392;42.696;23.350;2023-04-15T07:28:11;94736.91;;;11.64;72.15
40708;BME280;26392;42.696;23.350;2023-04-15T07:30:37;94754.91;;;11.65;72.21
40708;BME280;26392;42.696;23.350;2023-04-15T07:33:02;94761.69;;;11.83;71.97
40708;BME280;26392;42.696;23.350;2023-04-15T07:35:28;94763.31;;;12.05;71.63
40708;BME280;26392;42.696;23.350;2023-04-15T07:37:53;94751.53;;;12.20;71.27
40708;BME280;26392;42.696;23.350;2023-04-15T07:40:18;94753.66;;;12.33;70.34
40708;BME280;26392;42.696;23.350;2023-04-15T07:42:44;94750.28;;;12.51;69.36
40708;BME280;26392;42.696;23.350;2023-04-15T07:45:10;94751.84;;;12.68;67.76
40708;BME280;26392;42.696;23.350;2023-04-15T07:47:35;94748.75;;;12.85;65.53
40708;BME280;26392;42.696;23.350;2023-04-15T07:50:01;94754.63;;;13.02;64.41
40708;BME280;26392;42.696;23.350;2023-04-15T07:52:27;94770.16;;;13.12;62.43
40708;BME280;26392;42.696;23.350;2023-04-15T07:54:52;94771.19;;;13.26;61.29
40708;BME280;26392;42.696;23.350;2023-04-15T07:57:18;94773.50;;;13.43;60.80
40708;BME280;26392;42.696;23.350;2023-04-15T07:59:43;94782.16;;;13.55;60.59
40708;BME280;26392;42.696;23.350;2023-04-15T08:02:09;94779.34;;;13.65;59.67
40708;BME280;26392;42.696;23.350;2023-04-15T08:04:35;94775.94;;;13.79;58.39
40708;BME280;26392;42.696;23.350;2023-04-15T08:07:00;94780.41;;;13.70;57.00
40708;BME280;26392;42.696;23.350;2023-04-15T08:09:26;94771.25;;;13.84;56.24
40708;BME280;26392;42.696;23.350;2023-04-15T08:11:52;94772.53;;;13.92;56.47
40708;BME280;26392;42.696;23.350;2023-04-15T08:14:17;94771.34;;;14.03;55.84
40708;BME280;26392;42.696;23.350;2023-04-15T08:16:43;94770.34;;;13.89;54.66
40708;BME280;26392;42.696;23.350;2023-04-15T08:19:08;94768.00;;;14.06;55.10
40708;BME280;26392;42.696;23.350;2023-04-15T08:21:33;94773.84;;;14.24;52.94
40708;BME280;26392;42.696;23.350;2023-04-15T08:23:59;94763.81;;;14.38;52.38
40708;BME280;26392;42.696;23.350;2023-04-15T08:26:25;94768.78;;;14.60;54.12
40708;BME280;26392;42.696;23.350;2023-04-15T08:28:51;94766.91;;;14.55;54.24
40708;BME280;26392;42.696;23.350;2023-04-15T08:31:17;94759.50;;;14.32;55.14
40708;BME280;26392;42.696;23.350;2023-04-15T08:33:43;94763.09;;;14.75;54.80
40708;BME280;26392;42.696;23.350;2023-04-15T08:36:09;94756.22;;;14.97;53.13
40708;BME280;26392;42.696;23.350;2023-04-15T08:38:35;94757.47;;;14.86;53.96
40708;BME280;26392;42.696;23.350;2023-04-15T08:41:10;94744.72;;;14.95;55.17
40708;BME280;26392;42.696;23.350;2023-04-15T08:43:56;94751.94;;;15.10;54.31
40708;BME280;26392;42.696;23.350;2023-04-15T08:46:22;94754.50;;;15.20;53.85
40708;BME280;26392;42.696;23.350;2023-04-15T08:48:48;94753.00;;;15.28;52.39
40708;BME280;26392;42.696;23.350;2023-04-15T08:51:15;94753.13;;;15.55;50.91
40708;BME280;26392;42.696;23.350;2023-04-15T08:53:44;94743.34;;;15.82;49.64
40708;BME280;26392;42.696;23.350;2023-04-15T08:56:13;94743.81;;;16.17;49.48
40708;BME280;26392;42.696;23.350;2023-04-15T08:58:40;94743.50;;;16.46;46.93
40708;BME280;26392;42.696;23.350;2023-04-15T09:01:06;94724.88;;;16.43;46.02
40708;BME280;26392;42.696;23.350;2023-04-15T09:03:32;94735.47;;;16.77;44.80
40708;BME280;26392;42.696;23.350;2023-04-15T09:05:58;94736.25;;;16.91;44.06
40708;BME280;26392;42.696;23.350;2023-04-15T09:08:23;94732.41;;;16.78;44.39
40708;BME280;26392;42.696;23.350;2023-04-15T09:10:49;94730.25;;;16.75;43.99
40708;BME280;26392;42.696;23.350;2023-04-15T09:13:15;94726.56;;;16.66;44.31
40708;BME280;26392;42.696;23.350;2023-04-15T09:15:41;94721.00;;;16.44;44.91
40708;BME280;26392;42.696;23.350;2023-04-15T09:18:07;94725.97;;;15.54;47.38
40708;BME280;26392;42.696;23.350;2023-04-15T09:20:41;94712.06;;;15.64;47.24
40708;BME280;26392;42.696;23.350;2023-04-15T09:23:13;94705.94;;;15.86;46.33
40708;BME280;26392;42.696;23.350;2023-04-15T09:25:40;94710.81;;;15.89;45.06
40708;BME280;26392;42.696;23.350;2023-04-15T09:28:09;94714.88;;;15.78;45.11
40708;BME280;26392;42.696;23.350;2023-04-15T09:30:35;94715.34;;;15.66;44.29
40708;BME280;26392;42.696;23.350;2023-04-15T09:33:03;94719.34;;;15.87;43.90
40708;BME280;26392;42.696;23.350;2023-04-15T09:35:32;94719.47;;;16.24;43.68
40708;BME280;26392;42.696;23.350;2023-04-15T09:38:08;94719.38;;;16.56;42.48
40708;BME280;26392;42.696;23.350;2023-04-15T09:40:39;94715.81;;;16.84;42.66
40708;BME280;26392;42.696;23.350;2023-04-15T09:43:07;94718.97;;;17.13;41.90
40708;BME280;26392;42.696;23.350;2023-04-15T09:45:34;94720.16;;;16.85;42.04
40708;BME280;26392;42.696;23.350;2023-04-15T09:48:22;94726.63;;;16.52;41.33
40708;BME280;26392;42.696;23.350;2023-04-15T09:50:49;94720.41;;;16.47;41.41
40708;BME280;26392;42.696;23.350;2023-04-15T09:53:17;94723.34;;;16.64;40.98
40708;BME280;26392;42.696;23.350;2023-04-15T09:58:22;94724.28;;;17.10;39.96
40708;BME280;26392;42.696;23.350;2023-04-15T10:00:50;94726.75;;;17.11;39.43
40708;BME280;26392;42.696;23.350;2023-04-15T10:03:26;94729.50;;;17.34;39.31
40708;BME280;26392;42.696;23.350;2023-04-15T10:05:53;94717.81;;;17.73;38.64
40708;BME280;26392;42.696;23.350;2023-04-15T10:08:25;94712.81;;;18.06;38.19
40708;BME280;26392;42.696;23.350;2023-04-15T10:10:52;94713.66;;;18.16;37.68
40708;BME280;26392;42.696;23.350;2023-04-15T10:13:20;94709.44;;;18.58;36.93
40708;BME280;26392;42.696;23.350;2023-04-15T10:16:10;94705.81;;;18.97;35.83
40708;BME280;26392;42.696;23.350;2023-04-15T10:18:37;94701.94;;;18.41;36.18
40708;BME280;26392;42.696;23.350;2023-04-15T10:21:05;94700.00;;;18.50;35.95
40708;BME280;26392;42.696;23.350;2023-04-15T10:23:32;94695.00;;;18.61;35.75
40708;BME280;26392;42.696;23.350;2023-04-15T10:25:58;94695.50;;;18.72;35.77
40708;BME280;26392;42.696;23.350;2023-04-15T10:28:24;94683.88;;;19.10;35.22
40708;BME280;26392;42.696;23.350;2023-04-15T10:30:51;94691.69;;;19.34;34.25
40708;BME280;26392;42.696;23.350;2023-04-15T10:33:20;94684.69;;;19.45;34.35
40708;BME280;26392;42.696;23.350;2023-04-15T10:35:47;94680.97;;;19.67;34.24
40708;BME280;26392;42.696;23.350;2023-04-15T10:44:05;94670.72;;;19.15;34.00
40708;BME280;26392;42.696;23.350;2023-04-15T10:46:37;94677.84;;;18.82;35.18
40708;BME280;26392;42.696;23.350;2023-04-15T10:49:16;94678.34;;;18.75;34.48
40708;BME280;26392;42.696;23.350;2023-04-15T10:51:49;94667.94;;;18.72;34.34
40708;BME280;26392;42.696;23.350;2023-04-15T10:54:29;94656.13;;;18.80;34.33
40708;BME280;26392;42.696;23.350;2023-04-15T11:00:16;94670.06;;;19.18;33.08
40708;BME280;26392;42.696;23.350;2023-04-15T11:02:16;94676.75;;;19.09;33.66
40708;BME280;26392;42.696;23.350;2023-04-15T11:04:52;94667.50;;;19.13;33.61
40708;BME280;26392;42.696;23.350;2023-04-15T11:12:46;94667.50;;;19.22;34.28
40708;BME280;26392;42.696;23.350;2023-04-15T11:20:39;94661.09;;;18.61;34.35
40708;BME280;26392;42.696;23.350;2023-04-15T11:23:05;94664.50;;;18.58;34.60
40708;BME280;26392;42.696;23.350;2023-04-15T11:25:32;94650.75;;;18.75;34.26
40708;BME280;26392;42.696;23.350;2023-04-15T11:28:00;94653.19;;;19.11;33.54
40708;BME280;26392;42.696;23.350;2023-04-15T11:30:31;94657.94;;;18.93;33.63
40708;BME280;26392;42.696;23.350;2023-04-15T11:33:03;94648.81;;;19.01;34.08
40708;BME280;26392;42.696;23.350;2023-04-15T11:35:29;94657.41;;;19.35;33.76
40708;BME280;26392;42.696;23.350;2023-04-15T11:37:55;94660.28;;;19.73;33.01
40708;BME280;26392;42.696;23.350;2023-04-15T11:40:26;94652.44;;;19.93;32.09
40708;BME280;26392;42.696;23.350;2023-04-15T11:43:18;94655.50;;;20.38;31.93
40708;BME280;26392;42.696;23.350;2023-04-15T11:45:57;94651.97;;;20.88;31.62
40708;BME280;26392;42.696;23.350;2023-04-15T11:48:25;94655.34;;;20.94;30.58
40708;BME280;26392;42.696;23.350;2023-04-15T11:50:58;94653.47;;;21.07;30.39
40708;BME280;26392;42.696;23.350;2023-04-15T11:53:35;94650.34;;;21.08;30.46
40708;BME280;26392;42.696;23.350;2023-04-15T11:56:01;94651.75;;;21.14;29.92
40708;BME280;26392;42.696;23.350;2023-04-15T11:58:28;94645.47;;;21.05;30.23
40708;BME280;26392;42.696;23.350;2023-04-15T12:00:56;94648.00;;;20.98;30.67
40708;BME280;26392;42.696;23.350;2023-04-15T12:03:30;94648.19;;;20.93;29.72
40708;BME280;26392;42.696;23.350;2023-04-15T12:09:03;94642.81;;;20.67;26.55
40708;BME280;26392;42.696;23.350;2023-04-15T12:11:34;94640.31;;;20.53;26.49
40708;BME280;26392;42.696;23.350;2023-04-15T12:14:25;94640.66;;;20.72;26.86
40708;BME280;26392;42.696;23.350;2023-04-15T12:16:57;94639.59;;;20.65;28.85
40708;BME280;26392;42.696;23.350;2023-04-15T12:19:34;94635.75;;;20.78;29.54
40708;BME280;26392;42.696;23.350;2023-04-15T12:22:12;94633.31;;;20.97;29.49
40708;BME280;26392;42.696;23.350;2023-04-15T12:24:38;94628.13;;;20.75;28.86
40708;BME280;26392;42.696;23.350;2023-04-15T12:27:04;94631.63;;;20.63;28.77
40708;BME280;26392;42.696;23.350;2023-04-15T12:29:31;94636.03;;;20.85;28.93
40708;BME280;26392;42.696;23.350;2023-04-15T12:32:05;94634.47;;;20.96;28.81
40708;BME280;26392;42.696;23.350;2023-04-15T12:34:51;94637.75;;;20.69;28.16
40708;BME280;26392;42.696;23.350;2023-04-15T12:37:17;94648.28;;;20.54;28.05
40708;BME280;26392;42.696;23.350;2023-04-15T12:39:44;94639.44;;;20.31;28.69
40708;BME280;26392;42.696;23.350;2023-04-15T12:42:11;94644.91;;;20.40;28.88
40708;BME280;26392;42.696;23.350;2023-04-15T12:44:37;94639.66;;;20.56;28.55
40708;BME280;26392;42.696;23.350;2023-04-15T12:47:03;94641.16;;;20.74;28.92
40708;BME280;26392;42.696;23.350;2023-04-15T12:49:29;94647.78;;;21.03;27.91
40708;BME280;26392;42.696;23.350;2023-04-15T12:51:56;94647.97;;;21.19;27.32
40708;BME280;26392;42.696;23.350;2023-04-15T12:54:23;94649.25;;;21.42;26.75
40708;BME280;26392;42.696;23.350;2023-04-15T12:56:49;94652.34;;;21.62;26.83
40708;BME280;26392;42.696;23.350;2023-04-15T12:59:15;94652.50;;;21.23;27.55
40708;BME280;26392;42.696;23.350;2023-04-15T13:01:43;94637.09;;;21.14;27.06
40708;BME280;26392;42.696;23.350;2023-04-15T13:04:08;94651.91;;;20.97;27.20
40708;BME280;26392;42.696;23.350;2023-04-15T13:06:33;94653.19;;;20.99;28.35
40708;BME280;26392;42.696;23.350;2023-04-15T13:08:59;94642.47;;;20.98;28.64
40708;BME280;26392;42.696;23.350;2023-04-15T13:11:26;94642.50;;;20.89;28.56
40708;BME280;26392;42.696;23.350;2023-04-15T13:13:55;94643.41;;;21.02;28.27